Gerald R. Ford International Airport
KGRR : now visible

Airfield :











YOU CAN JOIN US ON...

 
LOGIN :

Register | Disclaimer

   EN    FR    IT 

 









Legend :    VFR   Marginal VFR   IFR   Intensive IFR   Very Intensive IFR
Visi :
Ceiling :
>= 8 km
>= 3000ft
5 to 8 km
1000 to 3000 ft
1500m to 5 km
500 to 1000 ft
800 to 1500m
200 to 500 ft
< 800m
< 200 ft
Symbols :   Thunderstorms  Fog  Heavy snow  Heavy precipitations  Wind > 20 kt






- Airport Elevation : 794 ft
- IATA code : GRR


KGRR - Gerald R. Ford International

CURRENT METAR :
  • 260806Z AUTO 26009KT 3SM BR OVC003 02/01 A2982 RMK AO2 T00170011

EXPIRED METARs :
  • 260753Z AUTO 26009KT 2SM BR OVC003 02/01 A2981 RMK AO2 SLP104 T00170011
  • 260653Z AUTO 25010KT 2 1/2SM BR OVC004 02/01 A2980 RMK AO2 SLP100 T00170011
  • 260630Z AUTO 25010KT 2SM BR OVC003 02/01 A2980 RMK AO2 T00170011
  • 260553Z AUTO 25011KT 1 1/2SM BR OVC003 02/01 A2980 RMK AO2 DZE00 SLP099 P0000 60000 T00170011 10017 20011 53002

TAF KGRR
Valid from the 26 at 06:00 until the 27 at 06:00 UTC


260540Z 2606/2706 29008KT 1 1/2SM -DZ BR OVC003
FM261000 26009KT 2SM -DZ BR OVC003
FM261900 27011KT 2SM BR OVC007
FM262000 27011KT 5SM BR OVC009
FM270000 26008KT 1 1/2SM -SN BR OVC003



MET'MAP, your aeronautical weather chart ! - Copyright ORBIFLY December 2007 - Disclaimer

ORBIFLY MET'MAP TEAM :

Programming & Development : Alexandra Zaïnal
Concept & original design : Baudouin d'Aumeries
Assistance for programming : Marc-Olivier Méhu
Technical & hardware support : Manuel Goepfert

Contact : metmap@orbifly.com




SOURCES & CREDITS :

   NOAA       Earth
Advisory